sensor_id;sensor_type;location;lat;lon;timestamp;P1;P2;P0
48155;PMS5003;35568;48.104;11.782;2022-10-26T00:01:05;5;5;
48155;PMS5003;35568;48.104;11.782;2022-10-26T00:03:34;6;6;
48155;PMS5003;35568;48.104;11.782;2022-10-26T00:06:03;6;6;
48155;PMS5003;35568;48.104;11.782;2022-10-26T00:08:32;7;7;
48155;PMS5003;35568;48.104;11.782;2022-10-26T00:10:59;9;8;
48155;PMS5003;35568;48.104;11.782;2022-10-26T00:13:26;8;7;
48155;PMS5003;35568;48.104;11.782;2022-10-26T00:15:53;7;7;
48155;PMS5003;35568;48.104;11.782;2022-10-26T00:18:20;6;5;
48155;PMS5003;35568;48.104;11.782;2022-10-26T00:20:48;6;6;
48155;PMS5003;35568;48.104;11.782;2022-10-26T00:23:16;5;5;
48155;PMS5003;35568;48.104;11.782;2022-10-26T00:25:43;5;5;
48155;PMS5003;35568;48.104;11.782;2022-10-26T00:28:10;6;5;
48155;PMS5003;35568;48.104;11.782;2022-10-26T00:30:37;5;5;
48155;PMS5003;35568;48.104;11.782;2022-10-26T00:33:05;5;5;
48155;PMS5003;35568;48.104;11.782;2022-10-26T00:35:35;5;5;
48155;PMS5003;35568;48.104;11.782;2022-10-26T00:38:02;6;5;
48155;PMS5003;35568;48.104;11.782;2022-10-26T00:40:29;5;5;
48155;PMS5003;35568;48.104;11.782;2022-10-26T00:42:56;4;4;
48155;PMS5003;35568;48.104;11.782;2022-10-26T00:45:24;4;4;
48155;PMS5003;35568;48.104;11.782;2022-10-26T00:47:52;5;4;
48155;PMS5003;35568;48.104;11.782;2022-10-26T00:50:24;5;5;
48155;PMS5003;35568;48.104;11.782;2022-10-26T00:52:54;5;4;
48155;PMS5003;35568;48.104;11.782;2022-10-26T00:55:25;4;4;
48155;PMS5003;35568;48.104;11.782;2022-10-26T00:57:57;4;4;
48155;PMS5003;35568;48.104;11.782;2022-10-26T01:00:26;4;4;
48155;PMS5003;35568;48.104;11.782;2022-10-26T01:02:53;5;5;
48155;PMS5003;35568;48.104;11.782;2022-10-26T01:05:22;7;5;
48155;PMS5003;35568;48.104;11.782;2022-10-26T01:07:50;6;6;
48155;PMS5003;35568;48.104;11.782;2022-10-26T01:10:17;7;7;
48155;PMS5003;35568;48.104;11.782;2022-10-26T01:12:44;5;5;
48155;PMS5003;35568;48.104;11.782;2022-10-26T01:15:12;7;7;
48155;PMS5003;35568;48.104;11.782;2022-10-26T01:17:43;5;4;
48155;PMS5003;35568;48.104;11.782;2022-10-26T01:20:26;6;6;
48155;PMS5003;35568;48.104;11.782;2022-10-26T01:23:06;4;4;
48155;PMS5003;35568;48.104;11.782;2022-10-26T01:25:40;7;5;
48155;PMS5003;35568;48.104;11.782;2022-10-26T01:28:30;3;3;
48155;PMS5003;35568;48.104;11.782;2022-10-26T01:31:05;5;5;
48155;PMS5003;35568;48.104;11.782;2022-10-26T01:33:38;4;4;
48155;PMS5003;35568;48.104;11.782;2022-10-26T01:36:10;5;5;
48155;PMS5003;35568;48.104;11.782;2022-10-26T01:38:42;5;4;
48155;PMS5003;35568;48.104;11.782;2022-10-26T01:41:18;4;4;
48155;PMS5003;35568;48.104;11.782;2022-10-26T01:43:53;5;5;
48155;PMS5003;35568;48.104;11.782;2022-10-26T01:46:22;3;3;
48155;PMS5003;35568;48.104;11.782;2022-10-26T01:48:53;3;3;
48155;PMS5003;35568;48.104;11.782;2022-10-26T01:51:25;4;4;
48155;PMS5003;35568;48.104;11.782;2022-10-26T01:53:53;4;4;
48155;PMS5003;35568;48.104;11.782;2022-10-26T01:56:20;4;4;
48155;PMS5003;35568;48.104;11.782;2022-10-26T01:59:10;4;4;
48155;PMS5003;35568;48.104;11.782;2022-10-26T02:02:24;2;2;
48155;PMS5003;35568;48.104;11.782;2022-10-26T02:05:06;3;3;
48155;PMS5003;35568;48.104;11.782;2022-10-26T02:07:58;4;4;
48155;PMS5003;35568;48.104;11.782;2022-10-26T02:10:38;4;4;
48155;PMS5003;35568;48.104;11.782;2022-10-26T02:13:15;3;3;
48155;PMS5003;35568;48.104;11.782;2022-10-26T02:15:53;2;2;
48155;PMS5003;35568;48.104;11.782;2022-10-26T02:18:28;3;3;
48155;PMS5003;35568;48.104;11.782;2022-10-26T02:20:58;3;3;
48155;PMS5003;35568;48.104;11.782;2022-10-26T02:23:31;3;3;
48155;PMS5003;35568;48.104;11.782;2022-10-26T02:26:02;4;2;
48155;PMS5003;35568;48.104;11.782;2022-10-26T02:28:32;4;4;
48155;PMS5003;35568;48.104;11.782;2022-10-26T02:31:03;5;5;
48155;PMS5003;35568;48.104;11.782;2022-10-26T02:33:32;6;5;
48155;PMS5003;35568;48.104;11.782;2022-10-26T02:36:04;5;5;
48155;PMS5003;35568;48.104;11.782;2022-10-26T02:38:35;4;4;
48155;PMS5003;35568;48.104;11.782;2022-10-26T02:41:05;4;4;
48155;PMS5003;35568;48.104;11.782;2022-10-26T02:43:34;4;3;
48155;PMS5003;35568;48.104;11.782;2022-10-26T02:46:07;5;4;
48155;PMS5003;35568;48.104;11.782;2022-10-26T02:48:37;4;4;
48155;PMS5003;35568;48.104;11.782;2022-10-26T02:51:06;3;3;
48155;PMS5003;35568;48.104;11.782;2022-10-26T02:53:39;4;4;
48155;PMS5003;35568;48.104;11.782;2022-10-26T02:56:13;5;4;
48155;PMS5003;35568;48.104;11.782;2022-10-26T02:58:48;2;2;
48155;PMS5003;35568;48.104;11.782;2022-10-26T03:03:00;5;5;
48155;PMS5003;35568;48.104;11.782;2022-10-26T03:05:29;3;3;
48155;PMS5003;35568;48.104;11.782;2022-10-26T03:07:57;3;3;
48155;PMS5003;35568;48.104;11.782;2022-10-26T03:10:24;3;3;
48155;PMS5003;35568;48.104;11.782;2022-10-26T03:12:52;5;5;
48155;PMS5003;35568;48.104;11.782;2022-10-26T03:15:19;4;3;
48155;PMS5003;35568;48.104;11.782;2022-10-26T03:17:46;4;2;
48155;PMS5003;35568;48.104;11.782;2022-10-26T03:20:13;4;4;
48155;PMS5003;35568;48.104;11.782;2022-10-26T03:22:40;4;4;
48155;PMS5003;35568;48.104;11.782;2022-10-26T03:25:07;3;3;
48155;PMS5003;35568;48.104;11.782;2022-10-26T03:27:34;4;3;
48155;PMS5003;35568;48.104;11.782;2022-10-26T03:30:01;3;3;
48155;PMS5003;35568;48.104;11.782;2022-10-26T03:32:28;3;2;
48155;PMS5003;35568;48.104;11.782;2022-10-26T03:34:55;3;3;
48155;PMS5003;35568;48.104;11.782;2022-10-26T03:37:21;4;4;
48155;PMS5003;35568;48.104;11.782;2022-10-26T03:39:49;3;3;
48155;PMS5003;35568;48.104;11.782;2022-10-26T03:42:16;2;2;
48155;PMS5003;35568;48.104;11.782;2022-10-26T03:44:43;3;3;
48155;PMS5003;35568;48.104;11.782;2022-10-26T03:47:09;2;2;
48155;PMS5003;35568;48.104;11.782;2022-10-26T03:49:36;2;2;
48155;PMS5003;35568;48.104;11.782;2022-10-26T03:52:03;2;2;
48155;PMS5003;35568;48.104;11.782;2022-10-26T03:54:30;2;2;
48155;PMS5003;35568;48.104;11.782;2022-10-26T03:56:57;3;3;
48155;PMS5003;35568;48.104;11.782;2022-10-26T03:59:23;1;1;
48155;PMS5003;35568;48.104;11.782;2022-10-26T04:01:50;2;2;
48155;PMS5003;35568;48.104;11.782;2022-10-26T04:04:17;4;3;
48155;PMS5003;35568;48.104;11.782;2022-10-26T04:06:44;2;2;
48155;PMS5003;35568;48.104;11.782;2022-10-26T04:09:10;2;2;
48155;PMS5003;35568;48.104;11.782;2022-10-26T04:11:37;2;2;
48155;PMS5003;35568;48.104;11.782;2022-10-26T04:14:04;1;1;
48155;PMS5003;35568;48.104;11.782;2022-10-26T04:16:31;3;3;
48155;PMS5003;35568;48.104;11.782;2022-10-26T04:18:58;2;2;
48155;PMS5003;35568;48.104;11.782;2022-10-26T04:21:25;2;2;
48155;PMS5003;35568;48.104;11.782;2022-10-26T04:23:52;2;2;
48155;PMS5003;35568;48.104;11.782;2022-10-26T04:26:19;1;1;
48155;PMS5003;35568;48.104;11.782;2022-10-26T04:28:45;3;2;
48155;PMS5003;35568;48.104;11.782;2022-10-26T04:31:12;1;1;
48155;PMS5003;35568;48.104;11.782;2022-10-26T04:33:39;2;2;
48155;PMS5003;35568;48.104;11.782;2022-10-26T04:36:06;2;2;
48155;PMS5003;35568;48.104;11.782;2022-10-26T04:38:33;9;9;
48155;PMS5003;35568;48.104;11.782;2022-10-26T04:41:00;6;6;
48155;PMS5003;35568;48.104;11.782;2022-10-26T04:43:27;6;6;
48155;PMS5003;35568;48.104;11.782;2022-10-26T04:45:54;6;6;
48155;PMS5003;35568;48.104;11.782;2022-10-26T04:48:21;4;4;
48155;PMS5003;35568;48.104;11.782;2022-10-26T04:50:48;9;9;
48155;PMS5003;35568;48.104;11.782;2022-10-26T04:53:15;9;9;
48155;PMS5003;35568;48.104;11.782;2022-10-26T04:55:42;7;7;
48155;PMS5003;35568;48.104;11.782;2022-10-26T04:58:09;5;5;
48155;PMS5003;35568;48.104;11.782;2022-10-26T05:00:35;4;4;
48155;PMS5003;35568;48.104;11.782;2022-10-26T05:03:04;8;7;
48155;PMS5003;35568;48.104;11.782;2022-10-26T05:05:33;7;7;
48155;PMS5003;35568;48.104;11.782;2022-10-26T05:08:01;7;7;
48155;PMS5003;35568;48.104;11.782;2022-10-26T05:10:29;7;7;
48155;PMS5003;35568;48.104;11.782;2022-10-26T05:12:56;6;6;
48155;PMS5003;35568;48.104;11.782;2022-10-26T05:15:24;4;4;
48155;PMS5003;35568;48.104;11.782;2022-10-26T05:17:55;4;4;
48155;PMS5003;35568;48.104;11.782;2022-10-26T05:20:24;3;3;
48155;PMS5003;35568;48.104;11.782;2022-10-26T05:22:52;2;2;
48155;PMS5003;35568;48.104;11.782;2022-10-26T05:25:19;3;3;
48155;PMS5003;35568;48.104;11.782;2022-10-26T05:27:46;4;4;
48155;PMS5003;35568;48.104;11.782;2022-10-26T05:30:12;1;1;
48155;PMS5003;35568;48.104;11.782;2022-10-26T05:32:39;3;3;
48155;PMS5003;35568;48.104;11.782;2022-10-26T05:35:06;1;1;
48155;PMS5003;35568;48.104;11.782;2022-10-26T05:37:34;3;3;
48155;PMS5003;35568;48.104;11.782;2022-10-26T05:40:00;7;7;
48155;PMS5003;35568;48.104;11.782;2022-10-26T05:42:27;4;4;
48155;PMS5003;35568;48.104;11.782;2022-10-26T05:44:54;4;4;
48155;PMS5003;35568;48.104;11.782;2022-10-26T05:47:21;5;5;
48155;PMS5003;35568;48.104;11.782;2022-10-26T05:49:48;3;3;
48155;PMS5003;35568;48.104;11.782;2022-10-26T05:52:14;7;7;
48155;PMS5003;35568;48.104;11.782;2022-10-26T05:54:41;3;3;
48155;PMS5003;35568;48.104;11.782;2022-10-26T05:57:09;3;3;
48155;PMS5003;35568;48.104;11.782;2022-10-26T05:59:37;3;3;
48155;PMS5003;35568;48.104;11.782;2022-10-26T06:02:08;4;3;
48155;PMS5003;35568;48.104;11.782;2022-10-26T06:04:41;3;3;
48155;PMS5003;35568;48.104;11.782;2022-10-26T06:07:10;3;3;
48155;PMS5003;35568;48.104;11.782;2022-10-26T06:09:39;4;4;
48155;PMS5003;35568;48.104;11.782;2022-10-26T06:12:07;4;4;
48155;PMS5003;35568;48.104;11.782;2022-10-26T06:14:36;10;10;
48155;PMS5003;35568;48.104;11.782;2022-10-26T06:17:06;5;5;
48155;PMS5003;35568;48.104;11.782;2022-10-26T06:19:46;5;4;
48155;PMS5003;35568;48.104;11.782;2022-10-26T06:22:26;3;3;
48155;PMS5003;35568;48.104;11.782;2022-10-26T06:25:06;5;5;
48155;PMS5003;35568;48.104;11.782;2022-10-26T06:27:41;4;4;
48155;PMS5003;35568;48.104;11.782;2022-10-26T06:30:16;5;5;
48155;PMS5003;35568;48.104;11.782;2022-10-26T06:32:44;5;5;
48155;PMS5003;35568;48.104;11.782;2022-10-26T06:35:16;4;4;
48155;PMS5003;35568;48.104;11.782;2022-10-26T06:37:49;6;5;
48155;PMS5003;35568;48.104;11.782;2022-10-26T06:40:18;8;8;
48155;PMS5003;35568;48.104;11.782;2022-10-26T06:42:45;5;5;
48155;PMS5003;35568;48.104;11.782;2022-10-26T06:45:14;5;5;
48155;PMS5003;35568;48.104;11.782;2022-10-26T06:47:43;6;6;
48155;PMS5003;35568;48.104;11.782;2022-10-26T06:50:23;6;6;
48155;PMS5003;35568;48.104;11.782;2022-10-26T06:52:57;5;5;
48155;PMS5003;35568;48.104;11.782;2022-10-26T06:55:35;5;5;
48155;PMS5003;35568;48.104;11.782;2022-10-26T06:58:07;5;5;
48155;PMS5003;35568;48.104;11.782;2022-10-26T07:00:40;5;5;
48155;PMS5003;35568;48.104;11.782;2022-10-26T07:03:09;4;4;
48155;PMS5003;35568;48.104;11.782;2022-10-26T07:05:37;5;4;
48155;PMS5003;35568;48.104;11.782;2022-10-26T07:08:04;3;2;
48155;PMS5003;35568;48.104;11.782;2022-10-26T07:10:32;3;3;
48155;PMS5003;35568;48.104;11.782;2022-10-26T07:12:58;4;4;
48155;PMS5003;35568;48.104;11.782;2022-10-26T07:15:26;4;4;
48155;PMS5003;35568;48.104;11.782;2022-10-26T07:17:53;4;4;
48155;PMS5003;35568;48.104;11.782;2022-10-26T07:20:20;4;4;
48155;PMS5003;35568;48.104;11.782;2022-10-26T07:22:50;3;3;
48155;PMS5003;35568;48.104;11.782;2022-10-26T07:25:17;4;3;
48155;PMS5003;35568;48.104;11.782;2022-10-26T07:27:44;3;3;
48155;PMS5003;35568;48.104;11.782;2022-10-26T07:30:12;5;3;
48155;PMS5003;35568;48.104;11.782;2022-10-26T07:32:40;4;4;
48155;PMS5003;35568;48.104;11.782;2022-10-26T07:35:07;3;3;
48155;PMS5003;35568;48.104;11.782;2022-10-26T07:37:35;4;3;
48155;PMS5003;35568;48.104;11.782;2022-10-26T07:40:02;2;2;
48155;PMS5003;35568;48.104;11.782;2022-10-26T07:42:29;3;3;
48155;PMS5003;35568;48.104;11.782;2022-10-26T07:44:56;3;3;
48155;PMS5003;35568;48.104;11.782;2022-10-26T07:47:23;4;4;
48155;PMS5003;35568;48.104;11.782;2022-10-26T07:49:49;1;1;
48155;PMS5003;35568;48.104;11.782;2022-10-26T07:52:16;2;2;
48155;PMS5003;35568;48.104;11.782;2022-10-26T07:54:43;2;2;
48155;PMS5003;35568;48.104;11.782;2022-10-26T07:57:10;1;1;
48155;PMS5003;35568;48.104;11.782;2022-10-26T07:59:36;2;2;
48155;PMS5003;35568;48.104;11.782;2022-10-26T08:02:03;3;2;
48155;PMS5003;35568;48.104;11.782;2022-10-26T08:04:30;1;1;
48155;PMS5003;35568;48.104;11.782;2022-10-26T08:06:57;2;2;
48155;PMS5003;35568;48.104;11.782;2022-10-26T08:09:24;2;2;
48155;PMS5003;35568;48.104;11.782;2022-10-26T08:11:51;2;2;
48155;PMS5003;35568;48.104;11.782;2022-10-26T08:14:18;2;2;
48155;PMS5003;35568;48.104;11.782;2022-10-26T08:16:44;3;3;
48155;PMS5003;35568;48.104;11.782;2022-10-26T08:19:11;1;1;
48155;PMS5003;35568;48.104;11.782;2022-10-26T08:21:38;2;1;
48155;PMS5003;35568;48.104;11.782;2022-10-26T08:24:05;3;3;
48155;PMS5003;35568;48.104;11.782;2022-10-26T08:26:33;3;2;
48155;PMS5003;35568;48.104;11.782;2022-10-26T08:29:00;1;1;
48155;PMS5003;35568;48.104;11.782;2022-10-26T08:31:27;0;0;
48155;PMS5003;35568;48.104;11.782;2022-10-26T08:33:53;1;1;
48155;PMS5003;35568;48.104;11.782;2022-10-26T08:36:21;3;3;
48155;PMS5003;35568;48.104;11.782;2022-10-26T08:38:50;1;1;
48155;PMS5003;35568;48.104;11.782;2022-10-26T08:41:18;1;1;
48155;PMS5003;35568;48.104;11.782;2022-10-26T08:43:51;0;0;
48155;PMS5003;35568;48.104;11.782;2022-10-26T08:46:22;1;1;
48155;PMS5003;35568;48.104;11.782;2022-10-26T08:48:54;2;2;
48155;PMS5003;35568;48.104;11.782;2022-10-26T08:51:26;1;1;
48155;PMS5003;35568;48.104;11.782;2022-10-26T08:53:58;1;1;
48155;PMS5003;35568;48.104;11.782;2022-10-26T08:56:31;2;2;
48155;PMS5003;35568;48.104;11.782;2022-10-26T08:59:06;0;0;
48155;PMS5003;35568;48.104;11.782;2022-10-26T09:01:39;0;0;
48155;PMS5003;35568;48.104;11.782;2022-10-26T09:04:08;0;0;
48155;PMS5003;35568;48.104;11.782;2022-10-26T09:06:41;1;1;
48155;PMS5003;35568;48.104;11.782;2022-10-26T09:09:16;0;0;
48155;PMS5003;35568;48.104;11.782;2022-10-26T09:11:52;1;1;
48155;PMS5003;35568;48.104;11.782;2022-10-26T09:14:27;1;1;
48155;PMS5003;35568;48.104;11.782;2022-10-26T09:17:06;1;1;
48155;PMS5003;35568;48.104;11.782;2022-10-26T09:19:44;1;1;
48155;PMS5003;35568;48.104;11.782;2022-10-26T09:22:25;2;1;
48155;PMS5003;35568;48.104;11.782;2022-10-26T09:24:59;0;0;
48155;PMS5003;35568;48.104;11.782;2022-10-26T09:27:38;1;1;
48155;PMS5003;35568;48.104;11.782;2022-10-26T09:30:11;0;0;
48155;PMS5003;35568;48.104;11.782;2022-10-26T09:32:42;0;0;
48155;PMS5003;35568;48.104;11.782;2022-10-26T09:35:12;1;1;
48155;PMS5003;35568;48.104;11.782;2022-10-26T09:37:46;0;0;
48155;PMS5003;35568;48.104;11.782;2022-10-26T09:40:17;0;0;
48155;PMS5003;35568;48.104;11.782;2022-10-26T09:42:50;1;1;
48155;PMS5003;35568;48.104;11.782;2022-10-26T09:45:24;0;0;
48155;PMS5003;35568;48.104;11.782;2022-10-26T09:47:56;1;1;
48155;PMS5003;35568;48.104;11.782;2022-10-26T09:50:32;1;1;
48155;PMS5003;35568;48.104;11.782;2022-10-26T09:53:01;2;1;
48155;PMS5003;35568;48.104;11.782;2022-10-26T09:55:28;0;0;
48155;PMS5003;35568;48.104;11.782;2022-10-26T09:57:58;1;0;
48155;PMS5003;35568;48.104;11.782;2022-10-26T10:00:29;0;0;
48155;PMS5003;35568;48.104;11.782;2022-10-26T10:02:58;1;1;
48155;PMS5003;35568;48.104;11.782;2022-10-26T10:05:26;0;0;
48155;PMS5003;35568;48.104;11.782;2022-10-26T10:08:27;1;1;
48155;PMS5003;35568;48.104;11.782;2022-10-26T10:10:55;3;1;
48155;PMS5003;35568;48.104;11.782;2022-10-26T10:13:25;1;1;
48155;PMS5003;35568;48.104;11.782;2022-10-26T10:15:55;1;1;
48155;PMS5003;35568;48.104;11.782;2022-10-26T10:18:27;1;1;
48155;PMS5003;35568;48.104;11.782;2022-10-26T10:20:56;0;0;
48155;PMS5003;35568;48.104;11.782;2022-10-26T10:23:26;0;0;
48155;PMS5003;35568;48.104;11.782;2022-10-26T10:25:59;0;0;
48155;PMS5003;35568;48.104;11.782;2022-10-26T10:28:28;1;1;
48155;PMS5003;35568;48.104;11.782;2022-10-26T10:30:57;0;0;
48155;PMS5003;35568;48.104;11.782;2022-10-26T10:33:32;0;0;
48155;PMS5003;35568;48.104;11.782;2022-10-26T10:36:03;1;1;
48155;PMS5003;35568;48.104;11.782;2022-10-26T10:38:37;1;1;
48155;PMS5003;35568;48.104;11.782;2022-10-26T10:41:13;1;1;
48155;PMS5003;35568;48.104;11.782;2022-10-26T10:43:45;1;1;
48155;PMS5003;35568;48.104;11.782;2022-10-26T10:46:17;1;1;
48155;PMS5003;35568;48.104;11.782;2022-10-26T10:48:46;1;1;
48155;PMS5003;35568;48.104;11.782;2022-10-26T10:51:17;0;0;
48155;PMS5003;35568;48.104;11.782;2022-10-26T10:53:46;0;0;
48155;PMS5003;35568;48.104;11.782;2022-10-26T10:56:20;1;1;
48155;PMS5003;35568;48.104;11.782;2022-10-26T10:59:00;1;1;
48155;PMS5003;35568;48.104;11.782;2022-10-26T11:01:47;0;0;
48155;PMS5003;35568;48.104;11.782;2022-10-26T11:04:22;0;0;
48155;PMS5003;35568;48.104;11.782;2022-10-26T11:07:02;1;1;
48155;PMS5003;35568;48.104;11.782;2022-10-26T11:09:33;1;1;
48155;PMS5003;35568;48.104;11.782;2022-10-26T11:12:06;1;1;
48155;PMS5003;35568;48.104;11.782;2022-10-26T11:14:39;2;2;
48155;PMS5003;35568;48.104;11.782;2022-10-26T11:17:13;1;1;
48155;PMS5003;35568;48.104;11.782;2022-10-26T11:19:47;0;0;
48155;PMS5003;35568;48.104;11.782;2022-10-26T11:22:20;3;3;
48155;PMS5003;35568;48.104;11.782;2022-10-26T11:24:53;2;2;
48155;PMS5003;35568;48.104;11.782;2022-10-26T11:27:25;1;1;
48155;PMS5003;35568;48.104;11.782;2022-10-26T11:29:58;1;1;
48155;PMS5003;35568;48.104;11.782;2022-10-26T11:32:29;1;1;
48155;PMS5003;35568;48.104;11.782;2022-10-26T11:35:04;2;2;
48155;PMS5003;35568;48.104;11.782;2022-10-26T11:37:40;2;2;
48155;PMS5003;35568;48.104;11.782;2022-10-26T11:40:17;2;2;
48155;PMS5003;35568;48.104;11.782;2022-10-26T11:42:54;2;2;
48155;PMS5003;35568;48.104;11.782;2022-10-26T11:45:31;1;1;
48155;PMS5003;35568;48.104;11.782;2022-10-26T11:48:05;2;1;
48155;PMS5003;35568;48.104;11.782;2022-10-26T11:50:40;0;0;
48155;PMS5003;35568;48.104;11.782;2022-10-26T11:53:11;0;0;
48155;PMS5003;35568;48.104;11.782;2022-10-26T11:55:42;1;1;
48155;PMS5003;35568;48.104;11.782;2022-10-26T11:58:14;0;0;
48155;PMS5003;35568;48.104;11.782;2022-10-26T12:00:43;1;0;
48155;PMS5003;35568;48.104;11.782;2022-10-26T12:03:19;0;0;
48155;PMS5003;35568;48.104;11.782;2022-10-26T12:05:52;1;1;
48155;PMS5003;35568;48.104;11.782;2022-10-26T12:08:20;2;2;
48155;PMS5003;35568;48.104;11.782;2022-10-26T12:10:53;1;1;
48155;PMS5003;35568;48.104;11.782;2022-10-26T12:13:29;0;0;
48155;PMS5003;35568;48.104;11.782;2022-10-26T12:16:02;0;0;
48155;PMS5003;35568;48.104;11.782;2022-10-26T12:18:38;1;0;
48155;PMS5003;35568;48.104;11.782;2022-10-26T12:21:10;1;0;
48155;PMS5003;35568;48.104;11.782;2022-10-26T12:23:52;2;2;
48155;PMS5003;35568;48.104;11.782;2022-10-26T12:26:36;1;1;
48155;PMS5003;35568;48.104;11.782;2022-10-26T12:29:12;1;1;
48155;PMS5003;35568;48.104;11.782;2022-10-26T12:31:51;2;1;
48155;PMS5003;35568;48.104;11.782;2022-10-26T12:34:21;1;1;
48155;PMS5003;35568;48.104;11.782;2022-10-26T12:36:49;3;3;
48155;PMS5003;35568;48.104;11.782;2022-10-26T12:39:37;1;1;
48155;PMS5003;35568;48.104;11.782;2022-10-26T12:42:09;2;2;
48155;PMS5003;35568;48.104;11.782;2022-10-26T12:45:01;3;2;
48155;PMS5003;35568;48.104;11.782;2022-10-26T12:48:02;2;2;
48155;PMS5003;35568;48.104;11.782;2022-10-26T12:50:29;0;0;
48155;PMS5003;35568;48.104;11.782;2022-10-26T12:52:57;2;2;
48155;PMS5003;35568;48.104;11.782;2022-10-26T12:55:45;2;2;
48155;PMS5003;35568;48.104;11.782;2022-10-26T12:58:41;2;1;
48155;PMS5003;35568;48.104;11.782;2022-10-26T13:01:29;1;1;
48155;PMS5003;35568;48.104;11.782;2022-10-26T13:05:06;2;2;
48155;PMS5003;35568;48.104;11.782;2022-10-26T13:07:51;2;2;
48155;PMS5003;35568;48.104;11.782;2022-10-26T13:10:25;2;2;
48155;PMS5003;35568;48.104;11.782;2022-10-26T13:12:53;2;2;
48155;PMS5003;35568;48.104;11.782;2022-10-26T13:15:24;3;3;
48155;PMS5003;35568;48.104;11.782;2022-10-26T13:17:56;3;3;
48155;PMS5003;35568;48.104;11.782;2022-10-26T13:20:26;2;2;
48155;PMS5003;35568;48.104;11.782;2022-10-26T13:22:55;1;1;
48155;PMS5003;35568;48.104;11.782;2022-10-26T13:25:23;1;1;
48155;PMS5003;35568;48.104;11.782;2022-10-26T13:28:01;1;1;
48155;PMS5003;35568;48.104;11.782;2022-10-26T13:30:40;0;0;
48155;PMS5003;35568;48.104;11.782;2022-10-26T13:33:22;1;1;
48155;PMS5003;35568;48.104;11.782;2022-10-26T13:35:54;2;2;
48155;PMS5003;35568;48.104;11.782;2022-10-26T13:38:26;3;3;
48155;PMS5003;35568;48.104;11.782;2022-10-26T13:40:59;2;2;
48155;PMS5003;35568;48.104;11.782;2022-10-26T13:43:34;1;1;
48155;PMS5003;35568;48.104;11.782;2022-10-26T13:46:02;1;1;
48155;PMS5003;35568;48.104;11.782;2022-10-26T13:48:34;2;2;
48155;PMS5003;35568;48.104;11.782;2022-10-26T13:51:04;2;2;
48155;PMS5003;35568;48.104;11.782;2022-10-26T13:53:41;3;3;
48155;PMS5003;35568;48.104;11.782;2022-10-26T13:56:16;3;3;
48155;PMS5003;35568;48.104;11.782;2022-10-26T13:58:51;3;3;
48155;PMS5003;35568;48.104;11.782;2022-10-26T14:01:24;1;1;
48155;PMS5003;35568;48.104;11.782;2022-10-26T14:03:52;2;1;
48155;PMS5003;35568;48.104;11.782;2022-10-26T14:06:21;2;1;
48155;PMS5003;35568;48.104;11.782;2022-10-26T14:08:54;1;1;
48155;PMS5003;35568;48.104;11.782;2022-10-26T14:11:26;2;2;
48155;PMS5003;35568;48.104;11.782;2022-10-26T14:13:59;1;1;
48155;PMS5003;35568;48.104;11.782;2022-10-26T14:16:28;4;4;
48155;PMS5003;35568;48.104;11.782;2022-10-26T14:18:57;1;1;
48155;PMS5003;35568;48.104;11.782;2022-10-26T14:21:23;2;2;
48155;PMS5003;35568;48.104;11.782;2022-10-26T14:23:52;2;2;
48155;PMS5003;35568;48.104;11.782;2022-10-26T14:26:22;1;1;
48155;PMS5003;35568;48.104;11.782;2022-10-26T14:28:51;2;2;
48155;PMS5003;35568;48.104;11.782;2022-10-26T14:31:21;2;2;
48155;PMS5003;35568;48.104;11.782;2022-10-26T14:33:50;1;1;
48155;PMS5003;35568;48.104;11.782;2022-10-26T14:36:18;2;2;
48155;PMS5003;35568;48.104;11.782;2022-10-26T14:38:50;0;0;
48155;PMS5003;35568;48.104;11.782;2022-10-26T14:41:23;2;2;
48155;PMS5003;35568;48.104;11.782;2022-10-26T14:43:52;2;2;
48155;PMS5003;35568;48.104;11.782;2022-10-26T14:46:22;3;3;
48155;PMS5003;35568;48.104;11.782;2022-10-26T14:48:50;4;4;
48155;PMS5003;35568;48.104;11.782;2022-10-26T14:51:20;3;3;
48155;PMS5003;35568;48.104;11.782;2022-10-26T14:53:51;3;3;
48155;PMS5003;35568;48.104;11.782;2022-10-26T14:56:21;5;4;
48155;PMS5003;35568;48.104;11.782;2022-10-26T14:58:50;3;2;
48155;PMS5003;35568;48.104;11.782;2022-10-26T15:01:23;3;3;
48155;PMS5003;35568;48.104;11.782;2022-10-26T15:03:53;2;1;
48155;PMS5003;35568;48.104;11.782;2022-10-26T15:06:31;2;2;
48155;PMS5003;35568;48.104;11.782;2022-10-26T15:09:03;3;3;
48155;PMS5003;35568;48.104;11.782;2022-10-26T15:11:31;3;2;
48155;PMS5003;35568;48.104;11.782;2022-10-26T15:13:59;3;3;
48155;PMS5003;35568;48.104;11.782;2022-10-26T15:16:27;3;3;
48155;PMS5003;35568;48.104;11.782;2022-10-26T15:18:57;3;2;
48155;PMS5003;35568;48.104;11.782;2022-10-26T15:21:33;4;4;
48155;PMS5003;35568;48.104;11.782;2022-10-26T15:24:02;3;3;
48155;PMS5003;35568;48.104;11.782;2022-10-26T15:26:41;3;3;
48155;PMS5003;35568;48.104;11.782;2022-10-26T15:29:12;5;4;
48155;PMS5003;35568;48.104;11.782;2022-10-26T15:32:00;2;2;
48155;PMS5003;35568;48.104;11.782;2022-10-26T15:34:28;2;2;
48155;PMS5003;35568;48.104;11.782;2022-10-26T15:36:55;3;3;
48155;PMS5003;35568;48.104;11.782;2022-10-26T15:39:24;2;2;
48155;PMS5003;35568;48.104;11.782;2022-10-26T15:41:50;3;2;
48155;PMS5003;35568;48.104;11.782;2022-10-26T15:44:18;1;1;
48155;PMS5003;35568;48.104;11.782;2022-10-26T15:46:46;2;2;
48155;PMS5003;35568;48.104;11.782;2022-10-26T15:49:16;4;4;
48155;PMS5003;35568;48.104;11.782;2022-10-26T15:51:45;3;3;
48155;PMS5003;35568;48.104;11.782;2022-10-26T15:54:13;3;3;
48155;PMS5003;35568;48.104;11.782;2022-10-26T15:56:41;6;6;
48155;PMS5003;35568;48.104;11.782;2022-10-26T15:59:10;6;5;
48155;PMS5003;35568;48.104;11.782;2022-10-26T16:01:40;4;4;
48155;PMS5003;35568;48.104;11.782;2022-10-26T16:04:08;5;5;
48155;PMS5003;35568;48.104;11.782;2022-10-26T16:06:35;5;4;
48155;PMS5003;35568;48.104;11.782;2022-10-26T16:09:04;4;4;
48155;PMS5003;35568;48.104;11.782;2022-10-26T16:11:33;4;4;
48155;PMS5003;35568;48.104;11.782;2022-10-26T16:14:00;4;4;
48155;PMS5003;35568;48.104;11.782;2022-10-26T16:16:27;4;4;
48155;PMS5003;35568;48.104;11.782;2022-10-26T16:18:54;4;3;
48155;PMS5003;35568;48.104;11.782;2022-10-26T16:21:22;5;5;
48155;PMS5003;35568;48.104;11.782;2022-10-26T16:23:51;5;5;
48155;PMS5003;35568;48.104;11.782;2022-10-26T16:26:21;4;4;
48155;PMS5003;35568;48.104;11.782;2022-10-26T16:28:49;3;3;
48155;PMS5003;35568;48.104;11.782;2022-10-26T16:31:17;5;5;
48155;PMS5003;35568;48.104;11.782;2022-10-26T16:33:45;5;4;
48155;PMS5003;35568;48.104;11.782;2022-10-26T16:36:12;6;6;
48155;PMS5003;35568;48.104;11.782;2022-10-26T16:38:39;4;4;
48155;PMS5003;35568;48.104;11.782;2022-10-26T16:41:07;7;7;
48155;PMS5003;35568;48.104;11.782;2022-10-26T16:43:35;6;6;
48155;PMS5003;35568;48.104;11.782;2022-10-26T16:46:04;5;5;
48155;PMS5003;35568;48.104;11.782;2022-10-26T16:48:33;4;4;
48155;PMS5003;35568;48.104;11.782;2022-10-26T16:51:03;5;5;
48155;PMS5003;35568;48.104;11.782;2022-10-26T16:53:32;4;4;
48155;PMS5003;35568;48.104;11.782;2022-10-26T16:56:00;6;5;
48155;PMS5003;35568;48.104;11.782;2022-10-26T16:58:28;5;5;
48155;PMS5003;35568;48.104;11.782;2022-10-26T17:00:54;4;4;